createdAt,value
2019-03-19T00:02:30.855Z,99.90
2019-03-19T00:05:04.956Z,99.90
2019-03-19T00:07:38.661Z,99.90
2019-03-19T00:10:13.101Z,99.90
2019-03-19T00:12:46.723Z,99.90
2019-03-19T00:15:20.848Z,99.90
2019-03-19T00:17:54.662Z,99.90
2019-03-19T00:20:29.313Z,99.90
2019-03-19T00:23:02.887Z,99.90
2019-03-19T00:25:36.905Z,99.90
2019-03-19T00:28:13.315Z,99.90
2019-03-19T00:30:47.128Z,99.90
2019-03-19T00:33:22.951Z,99.90
2019-03-19T00:35:57.163Z,99.90
2019-03-19T00:38:30.774Z,99.90
2019-03-19T00:41:04.795Z,99.90
2019-03-19T00:43:38.358Z,99.90
2019-03-19T00:46:15.385Z,99.90
2019-03-19T00:48:48.855Z,99.90
2019-03-19T00:51:23.406Z,99.90
2019-03-19T00:53:58.498Z,99.90
2019-03-19T00:56:32.644Z,99.90
2019-03-19T00:59:06.510Z,99.90
2019-03-19T01:01:40.797Z,99.90
2019-03-19T01:04:16.932Z,99.90
2019-03-19T01:06:50.843Z,99.90
2019-03-19T01:09:24.384Z,99.90
2019-03-19T01:11:58.135Z,99.90
2019-03-19T01:14:34.165Z,99.90
2019-03-19T01:17:07.948Z,99.90
2019-03-19T01:19:41.915Z,99.90
2019-03-19T01:22:16.172Z,99.90
2019-03-19T01:24:52.347Z,99.90
2019-03-19T01:27:26.937Z,99.90
2019-03-19T01:30:00.519Z,99.90
2019-03-19T01:32:34.539Z,99.90
2019-03-19T01:35:08.539Z,99.90
2019-03-19T01:37:42.341Z,99.90
2019-03-19T01:40:16.153Z,99.90
2019-03-19T01:42:50.062Z,99.90
2019-03-19T01:45:23.491Z,99.90
2019-03-19T01:47:58.052Z,99.90
2019-03-19T01:50:31.896Z,99.90
2019-03-19T01:53:07.035Z,99.90
2019-03-19T01:55:42.799Z,99.90
2019-03-19T01:58:16.856Z,99.90
2019-03-19T02:00:51.235Z,99.90
2019-03-19T02:03:25.581Z,99.90
2019-03-19T02:05:59.395Z,99.90
2019-03-19T02:08:33.706Z,99.90
2019-03-19T02:11:08.590Z,99.90
2019-03-19T02:13:42.866Z,99.90
2019-03-19T02:16:16.495Z,99.90
2019-03-19T02:18:51.310Z,99.90
2019-03-19T02:21:24.986Z,99.90
2019-03-19T02:23:57.384Z,99.90
2019-03-19T02:26:30.862Z,99.90
2019-03-19T02:29:05.022Z,99.90
2019-03-19T02:31:38.474Z,99.90
2019-03-19T02:34:13.270Z,99.90
2019-03-19T02:36:46.616Z,99.90
2019-03-19T02:39:19.880Z,99.90
2019-03-19T02:41:55.203Z,99.90
2019-03-19T02:44:29.093Z,99.90
2019-03-19T02:47:01.782Z,99.90
2019-03-19T02:49:37.796Z,99.90
2019-03-19T02:52:10.649Z,99.90
2019-03-19T02:54:44.051Z,99.90
2019-03-19T02:57:16.907Z,99.90
2019-03-19T02:59:50.256Z,99.90
2019-03-19T03:02:23.411Z,99.90
2019-03-19T03:04:56.525Z,99.90
2019-03-19T03:07:31.492Z,99.90
2019-03-19T03:10:05.082Z,99.90
2019-03-19T03:12:38.484Z,99.90
2019-03-19T03:15:12.250Z,99.90
2019-03-19T03:17:46.563Z,99.90
2019-03-19T03:20:20.808Z,99.90
2019-03-19T03:22:54.139Z,99.90
2019-03-19T03:25:27.942Z,99.90
2019-03-19T03:28:01.438Z,99.90
2019-03-19T03:30:34.899Z,99.90
2019-03-19T03:33:08.448Z,99.90
2019-03-19T03:35:42.295Z,99.90
2019-03-19T03:38:15.899Z,99.90
2019-03-19T03:40:49.982Z,99.90
2019-03-19T03:43:25.936Z,99.90
2019-03-19T03:45:59.707Z,99.90
2019-03-19T03:48:33.398Z,99.90
2019-03-19T03:51:09.893Z,99.90
2019-03-19T03:53:43.405Z,99.90
2019-03-19T03:56:18.007Z,99.90
2019-03-19T03:59:00.629Z,99.90
2019-03-19T04:01:30.965Z,99.90
2019-03-19T04:04:05.227Z,99.90
2019-03-19T04:06:39.215Z,99.90
2019-03-19T04:09:12.835Z,99.90
2019-03-19T04:11:52.909Z,99.90
2019-03-19T04:14:26.466Z,99.90
2019-03-19T04:17:00.346Z,99.90
2019-03-19T04:19:33.933Z,99.90
2019-03-19T04:22:07.598Z,99.90
2019-03-19T04:24:43.244Z,99.90
2019-03-19T04:27:17.568Z,99.90
2019-03-19T04:29:51.353Z,99.90
2019-03-19T04:32:25.430Z,99.90
2019-03-19T04:34:59.395Z,99.90
2019-03-19T04:37:33.327Z,99.90
2019-03-19T04:40:09.433Z,99.90
2019-03-19T04:42:45.920Z,99.90
2019-03-19T04:45:19.553Z,99.90
2019-03-19T04:47:53.752Z,99.90
2019-03-19T04:50:27.114Z,99.90
2019-03-19T04:53:03.535Z,99.90
2019-03-19T04:55:37.205Z,99.90
2019-03-19T04:58:11.418Z,99.90
2019-03-19T05:00:45.459Z,99.90
2019-03-19T05:03:19.338Z,99.90
2019-03-19T05:05:52.790Z,99.90
2019-03-19T05:08:26.679Z,99.90
2019-03-19T05:11:00.228Z,99.90
2019-03-19T05:13:34.873Z,99.90
2019-03-19T05:16:08.932Z,99.90
2019-03-19T05:18:44.328Z,99.90
2019-03-19T05:21:18.318Z,99.90
2019-03-19T05:23:52.887Z,99.90
2019-03-19T05:26:26.659Z,99.90
2019-03-19T05:29:00.982Z,99.90
2019-03-19T05:31:34.666Z,99.90
2019-03-19T05:34:10.381Z,99.90
2019-03-19T05:36:44.286Z,99.90
2019-03-19T05:39:18.199Z,99.90
2019-03-19T05:41:55.016Z,99.90
2019-03-19T05:44:29.336Z,99.90
2019-03-19T05:47:03.533Z,99.90
2019-03-19T05:49:37.808Z,99.90
2019-03-19T05:52:11.501Z,99.90
2019-03-19T05:54:48.753Z,99.90
2019-03-19T05:57:24.003Z,99.90
2019-03-19T05:59:58.908Z,99.90
2019-03-19T06:02:32.877Z,99.90
2019-03-19T06:05:07.886Z,99.90
2019-03-19T06:07:42.629Z,99.90
2019-03-19T06:10:17.049Z,99.90
2019-03-19T06:12:50.716Z,99.90
2019-03-19T06:15:25.900Z,99.90
2019-03-19T06:17:59.792Z,99.90
2019-03-19T06:20:33.788Z,99.90
2019-03-19T06:23:07.976Z,99.90
2019-03-19T06:25:42.132Z,99.90
2019-03-19T06:28:18.895Z,99.90
2019-03-19T06:30:52.442Z,99.90
2019-03-19T06:33:26.162Z,99.50
2019-03-19T06:36:00.311Z,99.40
2019-03-19T06:38:34.983Z,99.20
2019-03-19T06:41:10.007Z,98.90
2019-03-19T06:43:44.223Z,99.00
2019-03-19T06:46:18.859Z,99.10
2019-03-19T06:48:53.104Z,98.80
2019-03-19T06:51:27.520Z,98.90
2019-03-19T06:54:01.413Z,98.80
2019-03-19T06:56:37.990Z,98.80
2019-03-19T06:59:11.595Z,98.70
2019-03-19T07:01:46.208Z,98.70
2019-03-19T07:04:20.877Z,98.50
2019-03-19T07:06:55.294Z,98.40
2019-03-19T07:09:30.363Z,98.30
2019-03-19T07:12:05.392Z,98.20
2019-03-19T07:14:40.056Z,98.20
2019-03-19T07:17:14.540Z,98.10
2019-03-19T07:19:49.151Z,97.90
2019-03-19T07:22:26.884Z,97.90
2019-03-19T07:25:00.478Z,97.70
2019-03-19T07:27:35.454Z,97.50
2019-03-19T07:30:13.255Z,97.40
2019-03-19T07:32:49.053Z,97.20
2019-03-19T07:35:23.447Z,97.30
2019-03-19T07:37:57.680Z,97.30
2019-03-19T07:40:32.455Z,97.30
2019-03-19T07:43:09.021Z,97.30
2019-03-19T07:45:42.749Z,97.40
2019-03-19T07:48:16.720Z,97.30
2019-03-19T07:50:50.467Z,97.30
2019-03-19T07:53:24.953Z,97.30
2019-03-19T07:55:59.087Z,97.20
2019-03-19T07:58:45.207Z,97.10
2019-03-19T08:01:12.978Z,97.20
2019-03-19T08:03:48.612Z,97.10
2019-03-19T08:06:23.951Z,97.00
2019-03-19T08:09:00.621Z,97.00
2019-03-19T08:11:35.618Z,97.00
2019-03-19T08:14:10.582Z,96.70
2019-03-19T08:16:47.215Z,96.70
2019-03-19T08:19:23.497Z,96.60
2019-03-19T08:21:57.029Z,96.40
2019-03-19T08:24:32.213Z,96.50
2019-03-19T08:27:06.002Z,96.50
2019-03-19T08:29:43.443Z,96.40
2019-03-19T08:32:18.376Z,96.40
2019-03-19T08:34:52.171Z,96.10
2019-03-19T08:37:26.996Z,96.30
2019-03-19T08:40:02.740Z,96.00
2019-03-19T08:42:40.817Z,95.90
2019-03-19T08:45:15.533Z,96.00
2019-03-19T08:47:49.785Z,96.10
2019-03-19T08:50:24.837Z,96.00
2019-03-19T08:52:59.618Z,96.00
2019-03-19T08:55:34.393Z,96.00
2019-03-19T08:58:08.699Z,95.80
2019-03-19T09:00:44.992Z,95.70
2019-03-19T09:03:19.200Z,95.80
2019-03-19T09:05:54.336Z,95.50
2019-03-19T09:08:32.483Z,95.50
2019-03-19T09:11:06.563Z,95.40
2019-03-19T09:13:40.599Z,95.40
2019-03-19T09:16:15.065Z,95.20
2019-03-19T09:18:51.335Z,95.20
2019-03-19T09:21:26.134Z,94.80
2019-03-19T09:24:00.004Z,95.10
2019-03-19T09:26:35.554Z,94.60
2019-03-19T09:29:16.835Z,94.70
2019-03-19T09:31:46.245Z,94.60
2019-03-19T09:34:22.139Z,94.60
2019-03-19T09:36:59.787Z,94.20
2019-03-19T09:39:36.663Z,94.00
2019-03-19T09:42:13.280Z,94.40
2019-03-19T09:44:58.005Z,94.00
2019-03-19T09:47:23.395Z,93.60
2019-03-19T09:49:56.927Z,93.50
2019-03-19T09:52:31.226Z,93.70
2019-03-19T09:55:05.994Z,92.80
2019-03-19T09:57:41.325Z,92.90
2019-03-19T10:00:19.151Z,92.40
2019-03-19T10:03:00.493Z,92.50
2019-03-19T10:05:36.452Z,92.00
2019-03-19T10:08:11.101Z,91.60
2019-03-19T10:10:52.252Z,91.30
2019-03-19T10:13:25.625Z,90.60
2019-03-19T10:16:00.067Z,90.70
2019-03-19T10:18:35.622Z,90.40
2019-03-19T10:21:11.630Z,90.30
2019-03-19T10:26:40.738Z,89.30
2019-03-19T10:29:15.960Z,88.90
2019-03-19T10:31:49.546Z,88.70
2019-03-19T10:34:24.058Z,85.80
2019-03-19T10:36:58.239Z,86.50
2019-03-19T10:39:33.450Z,87.00
2019-03-19T10:42:07.257Z,87.00
2019-03-19T10:44:42.813Z,86.40
2019-03-19T10:47:16.979Z,87.00
2019-03-19T10:49:52.954Z,87.10
2019-03-19T10:52:28.320Z,86.60
2019-03-19T10:55:02.011Z,89.90
2019-03-19T10:57:35.769Z,90.30
2019-03-19T11:00:19.806Z,89.70
2019-03-19T11:02:58.230Z,88.90
2019-03-19T11:05:32.456Z,86.90
2019-03-19T11:08:06.069Z,86.40
2019-03-19T11:10:42.258Z,86.70
2019-03-19T11:13:17.880Z,86.20
2019-03-19T11:15:52.486Z,86.00
2019-03-19T11:18:27.270Z,85.10
2019-03-19T11:21:02.405Z,87.30
2019-03-19T11:23:37.248Z,86.70
2019-03-19T11:26:11.857Z,85.90
2019-03-19T11:28:48.186Z,86.10
2019-03-19T11:31:25.409Z,86.20
2019-03-19T11:34:02.562Z,86.20
2019-03-19T11:36:41.304Z,85.40
2019-03-19T11:39:17.036Z,84.90
2019-03-19T11:41:56.283Z,84.30
2019-03-19T11:44:31.087Z,84.30
2019-03-19T11:47:05.812Z,84.90
2019-03-19T11:49:45.871Z,84.60
2019-03-19T11:52:25.003Z,83.30
2019-03-19T11:54:59.993Z,82.80
2019-03-19T11:57:35.860Z,83.50
2019-03-19T12:00:15.667Z,84.40
2019-03-19T12:02:54.125Z,83.60
2019-03-19T12:05:33.572Z,83.20
2019-03-19T12:08:09.228Z,82.30
2019-03-19T12:10:43.886Z,82.50
2019-03-19T12:13:18.932Z,81.50
2019-03-19T12:15:56.942Z,82.70
2019-03-19T12:18:32.828Z,83.60
2019-03-19T12:21:09.459Z,84.30
2019-03-19T12:23:44.174Z,84.50
2019-03-19T12:26:20.419Z,84.20
2019-03-19T12:28:57.439Z,83.50
2019-03-19T12:31:32.707Z,83.90
2019-03-19T12:34:07.872Z,83.60
2019-03-19T12:36:47.321Z,83.30
2019-03-19T12:39:23.035Z,82.90
2019-03-19T12:41:59.821Z,83.60
2019-03-19T12:44:35.633Z,83.80
2019-03-19T12:47:10.193Z,82.70
2019-03-19T12:49:48.220Z,82.80
2019-03-19T12:52:23.207Z,81.00
2019-03-19T12:54:57.739Z,80.30
2019-03-19T12:57:35.699Z,80.40
2019-03-19T13:00:17.758Z,83.00
2019-03-19T13:02:52.184Z,85.20
2019-03-19T13:05:28.255Z,84.60
2019-03-19T13:08:06.871Z,85.60
2019-03-19T13:10:41.142Z,88.20
2019-03-19T13:13:15.441Z,90.00
2019-03-19T13:15:49.987Z,90.50
2019-03-19T13:18:24.803Z,90.90
2019-03-19T13:20:58.590Z,91.30
2019-03-19T13:23:34.927Z,91.10
2019-03-19T13:26:10.063Z,91.30
2019-03-19T13:28:48.182Z,91.40
2019-03-19T13:31:23.063Z,91.70
2019-03-19T13:33:57.212Z,91.80
2019-03-19T13:36:32.235Z,92.10
2019-03-19T13:39:12.105Z,92.60
2019-03-19T13:41:47.332Z,92.40
2019-03-19T13:44:27.919Z,92.40
2019-03-19T13:47:06.510Z,92.20
2019-03-19T13:49:43.316Z,92.20
2019-03-19T13:52:17.847Z,92.50
2019-03-19T13:54:51.981Z,92.50
2019-03-19T13:57:26.437Z,92.90
2019-03-19T14:00:00.474Z,93.10
2019-03-19T14:02:36.243Z,93.80
2019-03-19T14:05:11.921Z,93.40
2019-03-19T14:07:47.085Z,93.00
2019-03-19T14:10:24.837Z,92.80
2019-03-19T14:12:59.277Z,92.70
2019-03-19T14:15:34.170Z,92.80
2019-03-19T14:18:08.989Z,92.60
2019-03-19T14:20:44.469Z,92.50
2019-03-19T14:23:18.587Z,91.80
2019-03-19T14:25:52.801Z,91.90
2019-03-19T14:28:27.549Z,92.10
2019-03-19T14:31:08.674Z,92.00
2019-03-19T14:33:39.177Z,91.90
2019-03-19T14:36:15.334Z,91.60
2019-03-19T14:38:51.332Z,91.70
2019-03-19T14:41:25.527Z,91.80
2019-03-19T14:44:05.358Z,91.80
2019-03-19T14:46:40.359Z,91.60
2019-03-19T14:49:17.788Z,91.50
2019-03-19T14:51:53.047Z,91.60
2019-03-19T14:54:27.432Z,91.50
2019-03-19T14:57:04.568Z,91.40
2019-03-19T14:59:42.078Z,91.60
2019-03-19T15:02:16.263Z,91.40
2019-03-19T15:04:52.636Z,91.50
2019-03-19T15:07:30.233Z,91.60
2019-03-19T15:10:05.161Z,91.80
2019-03-19T15:12:40.638Z,92.10
2019-03-19T15:15:20.073Z,92.30
2019-03-19T15:17:55.052Z,92.40
2019-03-19T15:20:31.348Z,92.40
2019-03-19T15:23:06.581Z,92.30
2019-03-19T15:25:41.109Z,92.30
2019-03-19T15:28:18.946Z,92.40
2019-03-19T15:30:54.052Z,92.60
2019-03-19T15:33:28.632Z,92.80
2019-03-19T15:36:04.461Z,92.70
2019-03-19T15:38:41.404Z,92.90
2019-03-19T15:41:17.778Z,92.50
2019-03-19T15:43:54.857Z,92.60
2019-03-19T15:46:29.517Z,92.80
2019-03-19T15:49:03.922Z,92.90
2019-03-19T15:51:38.888Z,93.00
2019-03-19T15:54:13.508Z,92.90
2019-03-19T15:56:52.677Z,92.90
2019-03-19T15:59:27.349Z,92.70
2019-03-19T16:02:01.571Z,92.30
2019-03-19T16:04:36.564Z,91.80
2019-03-19T16:07:10.604Z,91.60
2019-03-19T16:09:45.983Z,91.70
2019-03-19T16:12:21.345Z,92.10
2019-03-19T16:15:00.403Z,92.10
2019-03-19T16:17:34.646Z,92.30
2019-03-19T16:20:11.601Z,92.20
2019-03-19T16:22:47.602Z,92.10
2019-03-19T16:25:26.027Z,92.60
2019-03-19T16:28:03.281Z,93.50
2019-03-19T16:30:37.920Z,93.90
2019-03-19T16:33:14.993Z,94.10
2019-03-19T16:35:51.133Z,94.30
2019-03-19T16:38:24.609Z,94.50
2019-03-19T16:40:58.779Z,95.00
2019-03-19T16:43:33.517Z,95.20
2019-03-19T16:46:07.714Z,95.20
2019-03-19T16:48:41.888Z,95.40
2019-03-19T16:51:16.415Z,95.80
2019-03-19T16:53:51.063Z,95.40
2019-03-19T16:56:26.431Z,96.00
2019-03-19T16:59:02.438Z,96.00
2019-03-19T17:01:37.375Z,96.00
2019-03-19T17:04:11.787Z,96.30
2019-03-19T17:06:46.383Z,96.50
2019-03-19T17:09:22.194Z,96.90
2019-03-19T17:11:55.699Z,97.30
2019-03-19T17:14:30.039Z,97.50
2019-03-19T17:17:04.723Z,97.70
2019-03-19T17:19:38.181Z,97.80
2019-03-19T17:22:12.537Z,98.10
2019-03-19T17:24:48.991Z,98.30
2019-03-19T17:27:23.071Z,98.50
2019-03-19T17:29:56.934Z,98.70
2019-03-19T17:32:31.169Z,98.80
2019-03-19T17:35:05.439Z,99.20
2019-03-19T17:37:39.146Z,99.40
2019-03-19T17:40:13.775Z,99.50
2019-03-19T17:42:48.871Z,99.50
2019-03-19T17:45:22.816Z,99.80
2019-03-19T17:48:02.141Z,99.90
2019-03-19T17:50:35.359Z,99.90
2019-03-19T17:53:10.935Z,99.90
2019-03-19T17:55:47.777Z,99.90
2019-03-19T17:58:24.443Z,99.90
2019-03-19T18:00:58.873Z,99.90
2019-03-19T18:03:33.999Z,99.90
2019-03-19T18:06:11.015Z,99.90
2019-03-19T18:08:45.831Z,99.90
2019-03-19T18:11:21.025Z,99.90
2019-03-19T18:13:54.746Z,99.90
2019-03-19T18:16:31.171Z,99.90
2019-03-19T18:19:08.536Z,99.90
2019-03-19T18:21:44.975Z,99.90
2019-03-19T18:24:22.874Z,99.90
2019-03-19T18:26:59.785Z,99.90
2019-03-19T18:29:34.237Z,99.90
2019-03-19T18:32:11.133Z,99.90
2019-03-19T18:34:46.056Z,99.90
2019-03-19T18:37:20.627Z,99.90
2019-03-19T18:39:55.986Z,99.90
2019-03-19T18:42:30.854Z,99.90
2019-03-19T18:45:05.243Z,99.90
2019-03-19T18:47:41.233Z,99.90
2019-03-19T18:50:19.380Z,99.90
2019-03-19T18:52:55.280Z,99.90
2019-03-19T18:55:28.641Z,99.90
2019-03-19T18:58:03.035Z,99.90
2019-03-19T19:00:38.283Z,99.90
2019-03-19T19:03:13.488Z,99.90
2019-03-19T19:05:49.811Z,99.90
2019-03-19T19:08:24.494Z,99.90
2019-03-19T19:11:02.483Z,99.90
2019-03-19T19:13:36.231Z,99.90
2019-03-19T19:16:13.571Z,99.90
2019-03-19T19:18:48.395Z,99.90
2019-03-19T19:21:24.414Z,99.90
2019-03-19T19:23:58.928Z,99.90
2019-03-19T19:26:33.001Z,99.90
2019-03-19T19:29:10.013Z,99.90
2019-03-19T19:31:46.218Z,99.90
2019-03-19T19:34:22.751Z,99.90
2019-03-19T19:37:01.294Z,99.90
2019-03-19T19:39:36.202Z,99.90
2019-03-19T19:42:10.341Z,99.90
2019-03-19T19:44:46.492Z,99.90
2019-03-19T19:47:23.495Z,99.90
2019-03-19T19:49:58.233Z,99.90
2019-03-19T19:52:32.863Z,99.90
2019-03-19T19:55:06.646Z,99.90
2019-03-19T19:57:42.765Z,99.90
2019-03-19T20:00:18.421Z,99.90
2019-03-19T20:02:53.465Z,99.90
2019-03-19T20:05:27.735Z,99.90
2019-03-19T20:08:05.528Z,99.90
2019-03-19T20:10:39.816Z,99.90
2019-03-19T20:13:13.836Z,99.90
2019-03-19T20:15:49.008Z,99.90
2019-03-19T20:18:23.995Z,99.90
2019-03-19T20:21:00.122Z,99.90
2019-03-19T20:23:37.965Z,99.90
2019-03-19T20:26:13.446Z,99.90
2019-03-19T20:28:48.712Z,99.90
2019-03-19T20:31:22.953Z,99.90
2019-03-19T20:33:57.972Z,99.90
2019-03-19T20:36:33.278Z,99.90
2019-03-19T20:39:09.497Z,99.90
2019-03-19T20:41:46.919Z,99.90
2019-03-19T20:44:21.283Z,99.90
2019-03-19T20:46:55.187Z,99.90
2019-03-19T20:49:29.832Z,99.90
2019-03-19T20:52:03.604Z,99.90
2019-03-19T20:54:44.678Z,99.90
2019-03-19T20:57:18.737Z,99.90
2019-03-19T20:59:52.701Z,99.90
2019-03-19T21:02:27.661Z,99.90
2019-03-19T21:05:02.216Z,99.90
2019-03-19T21:07:36.825Z,99.90
2019-03-19T21:10:13.279Z,99.90
2019-03-19T21:12:48.724Z,99.90
2019-03-19T21:15:24.794Z,99.90
2019-03-19T21:18:00.308Z,99.90
2019-03-19T21:20:34.662Z,99.90
2019-03-19T21:23:09.305Z,99.90
2019-03-19T21:25:47.197Z,99.90
2019-03-19T21:28:21.160Z,99.90
2019-03-19T21:30:56.049Z,99.90
2019-03-19T21:33:32.862Z,99.90
2019-03-19T21:36:07.436Z,99.90
2019-03-19T21:38:49.565Z,99.90
2019-03-19T21:41:24.717Z,99.90
2019-03-19T21:43:59.355Z,99.90
2019-03-19T21:46:34.135Z,99.90
2019-03-19T21:49:09.464Z,99.90
2019-03-19T21:51:43.226Z,99.90
2019-03-19T21:54:17.152Z,99.90
2019-03-19T21:56:51.268Z,99.90
2019-03-19T21:59:25.230Z,99.90
2019-03-19T22:01:59.517Z,99.90
2019-03-19T22:04:33.986Z,99.90
2019-03-19T22:07:08.259Z,99.90
2019-03-19T22:09:41.892Z,99.90
2019-03-19T22:12:15.732Z,99.90
2019-03-19T22:14:50.059Z,99.90
2019-03-19T22:17:23.808Z,99.90
2019-03-19T22:19:58.023Z,99.90
2019-03-19T22:22:33.256Z,99.90
2019-03-19T22:25:08.280Z,99.90
2019-03-19T22:27:45.854Z,99.90
2019-03-19T22:30:19.833Z,99.90
2019-03-19T22:32:53.878Z,99.90
2019-03-19T22:35:28.290Z,99.90
2019-03-19T22:38:02.879Z,99.90
2019-03-19T22:40:36.843Z,99.90
2019-03-19T22:43:10.716Z,99.90
2019-03-19T22:45:44.874Z,99.90
2019-03-19T22:48:18.907Z,99.90
2019-03-19T22:50:52.996Z,99.90
2019-03-19T22:53:26.971Z,99.90
2019-03-19T22:56:01.233Z,99.90
2019-03-19T22:58:35.858Z,99.90
2019-03-19T23:01:09.984Z,99.90
2019-03-19T23:03:45.351Z,99.90
2019-03-19T23:06:19.407Z,99.90
2019-03-19T23:08:54.440Z,99.90
2019-03-19T23:11:28.075Z,99.90
2019-03-19T23:14:03.213Z,99.90
2019-03-19T23:16:37.386Z,99.90
2019-03-19T23:19:11.130Z,99.90
2019-03-19T23:21:44.966Z,99.90
2019-03-19T23:24:20.985Z,99.90
2019-03-19T23:26:55.406Z,99.90
2019-03-19T23:29:32.133Z,99.90
2019-03-19T23:32:06.038Z,99.90
2019-03-19T23:34:43.499Z,99.90
2019-03-19T23:37:17.824Z,99.90
2019-03-19T23:39:51.786Z,99.90
2019-03-19T23:42:25.567Z,99.90
2019-03-19T23:45:01.375Z,99.90
2019-03-19T23:47:35.537Z,99.90
2019-03-19T23:50:11.073Z,99.90
2019-03-19T23:52:45.410Z,99.90
2019-03-19T23:55:19.695Z,99.90
2019-03-19T23:57:53.583Z,99.90
